sensor_id;sensor_type;location;lat;lon;timestamp;pressure;altitude;pressure_sealevel;temperature;humidity
50682;BME280;36779;52.168;20.878;2023-05-24T00:01:24;100102.84;;;16.71;46.22
50682;BME280;36779;52.168;20.878;2023-05-24T00:03:53;100104.75;;;16.69;46.31
50682;BME280;36779;52.168;20.878;2023-05-24T00:06:27;100099.53;;;16.66;46.40
50682;BME280;36779;52.168;20.878;2023-05-24T00:08:56;100095.60;;;16.63;46.31
50682;BME280;36779;52.168;20.878;2023-05-24T00:11:26;100094.13;;;16.61;46.41
50682;BME280;36779;52.168;20.878;2023-05-24T00:13:55;100097.05;;;16.58;46.42
50682;BME280;36779;52.168;20.878;2023-05-24T00:16:26;100094.02;;;16.57;46.47
50682;BME280;36779;52.168;20.878;2023-05-24T00:18:59;100092.44;;;16.57;46.40
50682;BME280;36779;52.168;20.878;2023-05-24T00:21:29;100088.46;;;16.54;46.59
50682;BME280;36779;52.168;20.878;2023-05-24T00:23:59;100085.14;;;16.52;46.57
50682;BME280;36779;52.168;20.878;2023-05-24T00:26:27;100088.29;;;16.52;46.53
50682;BME280;36779;52.168;20.878;2023-05-24T00:28:56;100086.39;;;16.50;46.60
50682;BME280;36779;52.168;20.878;2023-05-24T00:31:26;100084.06;;;16.48;46.65
50682;BME280;36779;52.168;20.878;2023-05-24T00:34:02;100084.82;;;16.46;46.74
50682;BME280;36779;52.168;20.878;2023-05-24T00:36:36;100083.23;;;16.45;46.61
50682;BME280;36779;52.168;20.878;2023-05-24T00:39:08;100082.54;;;16.45;46.80
50682;BME280;36779;52.168;20.878;2023-05-24T00:41:36;100082.70;;;16.45;46.85
50682;BME280;36779;52.168;20.878;2023-05-24T00:44:05;100084.35;;;16.46;46.63
50682;BME280;36779;52.168;20.878;2023-05-24T00:46:35;100082.67;;;16.46;46.98
50682;BME280;36779;52.168;20.878;2023-05-24T00:49:04;100084.02;;;16.46;46.76
50682;BME280;36779;52.168;20.878;2023-05-24T00:51:33;100083.52;;;16.45;46.85
50682;BME280;36779;52.168;20.878;2023-05-24T00:54:11;100079.92;;;16.45;46.80
50682;BME280;36779;52.168;20.878;2023-05-24T00:56:43;100083.20;;;16.45;46.81
50682;BME280;36779;52.168;20.878;2023-05-24T00:59:13;100079.40;;;16.44;46.93
50682;BME280;36779;52.168;20.878;2023-05-24T01:01:49;100077.45;;;16.43;46.90
50682;BME280;36779;52.168;20.878;2023-05-24T01:04:20;100078.04;;;16.40;46.75
50682;BME280;36779;52.168;20.878;2023-05-24T01:07:00;100077.50;;;16.38;46.87
50682;BME280;36779;52.168;20.878;2023-05-24T01:09:46;100082.18;;;16.37;46.78
50682;BME280;36779;52.168;20.878;2023-05-24T01:12:42;100079.36;;;16.37;46.88
50682;BME280;36779;52.168;20.878;2023-05-24T01:15:23;100076.02;;;16.36;47.02
50682;BME280;36779;52.168;20.878;2023-05-24T01:18:06;100076.22;;;16.35;46.88
50682;BME280;36779;52.168;20.878;2023-05-24T01:20:39;100082.46;;;16.32;46.96
50682;BME280;36779;52.168;20.878;2023-05-24T01:23:34;100080.84;;;16.31;47.08
50682;BME280;36779;52.168;20.878;2023-05-24T01:26:19;100081.27;;;16.31;46.94
50682;BME280;36779;52.168;20.878;2023-05-24T01:28:48;100081.98;;;16.31;47.19
50682;BME280;36779;52.168;20.878;2023-05-24T01:31:19;100082.99;;;16.30;46.88
50682;BME280;36779;52.168;20.878;2023-05-24T01:33:52;100082.25;;;16.27;47.00
50682;BME280;36779;52.168;20.878;2023-05-24T01:36:25;100082.46;;;16.26;47.21
50682;BME280;36779;52.168;20.878;2023-05-24T01:38:54;100084.16;;;16.22;47.15
50682;BME280;36779;52.168;20.878;2023-05-24T01:41:38;100088.87;;;16.19;47.16
50682;BME280;36779;52.168;20.878;2023-05-24T01:44:14;100088.42;;;16.17;47.13
50682;BME280;36779;52.168;20.878;2023-05-24T01:46:46;100087.95;;;16.15;47.13
50682;BME280;36779;52.168;20.878;2023-05-24T01:49:23;100086.46;;;16.14;47.22
50682;BME280;36779;52.168;20.878;2023-05-24T01:51:58;100085.71;;;16.12;47.31
50682;BME280;36779;52.168;20.878;2023-05-24T01:54:30;100087.33;;;16.09;47.37
50682;BME280;36779;52.168;20.878;2023-05-24T01:57:04;100087.38;;;16.06;47.36
50682;BME280;36779;52.168;20.878;2023-05-24T01:59:36;100089.23;;;16.05;47.35
50682;BME280;36779;52.168;20.878;2023-05-24T02:02:07;100087.95;;;16.04;47.30
50682;BME280;36779;52.168;20.878;2023-05-24T02:04:36;100086.33;;;16.02;47.15
50682;BME280;36779;52.168;20.878;2023-05-24T02:07:09;100085.05;;;15.99;47.36
50682;BME280;36779;52.168;20.878;2023-05-24T02:09:38;100087.92;;;15.97;47.47
50682;BME280;36779;52.168;20.878;2023-05-24T02:12:10;100085.95;;;15.94;47.34
50682;BME280;36779;52.168;20.878;2023-05-24T02:14:43;100085.90;;;15.92;47.32
50682;BME280;36779;52.168;20.878;2023-05-24T02:17:15;100088.43;;;15.90;47.38
50682;BME280;36779;52.168;20.878;2023-05-24T02:19:46;100083.90;;;15.88;47.30
50682;BME280;36779;52.168;20.878;2023-05-24T02:22:15;100086.92;;;15.85;47.55
50682;BME280;36779;52.168;20.878;2023-05-24T02:24:48;100086.98;;;15.82;47.52
50682;BME280;36779;52.168;20.878;2023-05-24T02:27:19;100089.64;;;15.80;47.41
50682;BME280;36779;52.168;20.878;2023-05-24T02:29:48;100087.85;;;15.79;47.71
50682;BME280;36779;52.168;20.878;2023-05-24T02:32:18;100084.77;;;15.78;47.62
50682;BME280;36779;52.168;20.878;2023-05-24T02:34:47;100085.29;;;15.75;47.44
50682;BME280;36779;52.168;20.878;2023-05-24T02:37:16;100086.65;;;15.73;47.70
50682;BME280;36779;52.168;20.878;2023-05-24T02:39:46;100086.69;;;15.71;47.83
50682;BME280;36779;52.168;20.878;2023-05-24T02:42:16;100090.60;;;15.71;47.60
50682;BME280;36779;52.168;20.878;2023-05-24T02:44:47;100086.06;;;15.69;47.60
50682;BME280;36779;52.168;20.878;2023-05-24T02:47:19;100084.65;;;15.67;47.80
50682;BME280;36779;52.168;20.878;2023-05-24T02:49:49;100085.94;;;15.67;47.67
50682;BME280;36779;52.168;20.878;2023-05-24T02:52:20;100088.48;;;15.65;47.60
50682;BME280;36779;52.168;20.878;2023-05-24T02:54:50;100090.39;;;15.62;47.66
50682;BME280;36779;52.168;20.878;2023-05-24T02:57:22;100086.77;;;15.57;47.65
50682;BME280;36779;52.168;20.878;2023-05-24T02:59:51;100090.86;;;15.54;47.74
50682;BME280;36779;52.168;20.878;2023-05-24T03:02:20;100092.55;;;15.53;47.82
50682;BME280;36779;52.168;20.878;2023-05-24T03:04:49;100090.37;;;15.53;47.83
50682;BME280;36779;52.168;20.878;2023-05-24T03:07:21;100097.34;;;15.52;47.74
50682;BME280;36779;52.168;20.878;2023-05-24T03:09:50;100098.41;;;15.52;47.77
50682;BME280;36779;52.168;20.878;2023-05-24T03:12:19;100099.33;;;15.52;47.71
50682;BME280;36779;52.168;20.878;2023-05-24T03:14:48;100098.24;;;15.51;47.98
50682;BME280;36779;52.168;20.878;2023-05-24T03:17:20;100100.03;;;15.50;48.00
50682;BME280;36779;52.168;20.878;2023-05-24T03:19:49;100100.50;;;15.47;47.94
50682;BME280;36779;52.168;20.878;2023-05-24T03:22:19;100105.54;;;15.46;48.07
50682;BME280;36779;52.168;20.878;2023-05-24T03:24:48;100108.52;;;15.46;48.10
50682;BME280;36779;52.168;20.878;2023-05-24T03:27:20;100108.61;;;15.47;48.02
50682;BME280;36779;52.168;20.878;2023-05-24T03:29:49;100109.35;;;15.47;47.92
50682;BME280;36779;52.168;20.878;2023-05-24T03:32:19;100111.56;;;15.45;47.95
50682;BME280;36779;52.168;20.878;2023-05-24T03:34:48;100111.27;;;15.45;48.28
50682;BME280;36779;52.168;20.878;2023-05-24T03:37:17;100110.13;;;15.44;48.05
50682;BME280;36779;52.168;20.878;2023-05-24T03:39:47;100109.82;;;15.42;48.19
50682;BME280;36779;52.168;20.878;2023-05-24T03:42:57;100108.98;;;15.39;48.42
50682;BME280;36779;52.168;20.878;2023-05-24T03:46:00;100111.76;;;15.37;48.22
50682;BME280;36779;52.168;20.878;2023-05-24T03:48:29;100110.98;;;15.36;48.41
50682;BME280;36779;52.168;20.878;2023-05-24T03:50:59;100116.61;;;15.35;48.41
50682;BME280;36779;52.168;20.878;2023-05-24T03:53:28;100119.63;;;15.36;48.45
50682;BME280;36779;52.168;20.878;2023-05-24T03:55:57;100123.23;;;15.38;48.28
50682;BME280;36779;52.168;20.878;2023-05-24T03:58:25;100121.23;;;15.41;48.52
50682;BME280;36779;52.168;20.878;2023-05-24T04:00:58;100126.20;;;15.45;48.58
50682;BME280;36779;52.168;20.878;2023-05-24T04:03:29;100130.40;;;15.51;48.49
50682;BME280;36779;52.168;20.878;2023-05-24T04:06:01;100131.91;;;15.57;48.77
50682;BME280;36779;52.168;20.878;2023-05-24T04:08:29;100133.08;;;15.61;48.78
50682;BME280;36779;52.168;20.878;2023-05-24T04:10:58;100130.88;;;15.70;48.72
50682;BME280;36779;52.168;20.878;2023-05-24T04:13:27;100131.20;;;15.77;48.88
50682;BME280;36779;52.168;20.878;2023-05-24T04:15:59;100133.65;;;15.86;48.85
50682;BME280;36779;52.168;20.878;2023-05-24T04:18:28;100138.71;;;15.96;48.81
50682;BME280;36779;52.168;20.878;2023-05-24T04:20:57;100142.21;;;16.06;49.06
50682;BME280;36779;52.168;20.878;2023-05-24T04:23:26;100141.98;;;16.16;48.97
50682;BME280;36779;52.168;20.878;2023-05-24T04:25:55;100147.80;;;16.26;48.89
50682;BME280;36779;52.168;20.878;2023-05-24T04:28:23;100152.56;;;16.36;49.06
50682;BME280;36779;52.168;20.878;2023-05-24T04:30:59;100152.48;;;16.45;48.92
50682;BME280;36779;52.168;20.878;2023-05-24T04:33:27;100152.79;;;16.56;49.06
50682;BME280;36779;52.168;20.878;2023-05-24T04:35:56;100150.30;;;16.68;49.06
50682;BME280;36779;52.168;20.878;2023-05-24T04:38:28;100159.67;;;16.78;48.99
50682;BME280;36779;52.168;20.878;2023-05-24T04:40:59;100157.44;;;16.89;49.08
50682;BME280;36779;52.168;20.878;2023-05-24T04:43:29;100162.10;;;16.99;49.01
50682;BME280;36779;52.168;20.878;2023-05-24T04:45:58;100162.38;;;17.08;48.96
50682;BME280;36779;52.168;20.878;2023-05-24T04:48:28;100160.44;;;17.24;49.00
50682;BME280;36779;52.168;20.878;2023-05-24T04:50:57;100157.45;;;17.53;49.06
50682;BME280;36779;52.168;20.878;2023-05-24T04:53:26;100161.28;;;17.89;49.54
50682;BME280;36779;52.168;20.878;2023-05-24T04:55:54;100162.09;;;18.95;50.70
50682;BME280;36779;52.168;20.878;2023-05-24T04:58:24;100162.42;;;20.31;51.10
50682;BME280;36779;52.168;20.878;2023-05-24T05:01:00;100162.38;;;21.27;49.77
50682;BME280;36779;52.168;20.878;2023-05-24T05:03:29;100167.63;;;21.32;48.57
50682;BME280;36779;52.168;20.878;2023-05-24T05:05:57;100163.88;;;21.86;48.82
50682;BME280;36779;52.168;20.878;2023-05-24T05:08:26;100162.06;;;22.34;48.15
50682;BME280;36779;52.168;20.878;2023-05-24T05:10:55;100168.48;;;22.84;47.89
50682;BME280;36779;52.168;20.878;2023-05-24T05:13:24;100172.09;;;22.91;46.75
50682;BME280;36779;52.168;20.878;2023-05-24T05:15:58;100175.64;;;22.66;46.11
50682;BME280;36779;52.168;20.878;2023-05-24T05:18:27;100180.45;;;22.88;46.79
50682;BME280;36779;52.168;20.878;2023-05-24T05:20:56;100179.06;;;23.42;46.75
50682;BME280;36779;52.168;20.878;2023-05-24T05:23:25;100182.16;;;23.87;46.50
50682;BME280;36779;52.168;20.878;2023-05-24T05:25:57;100182.66;;;24.03;45.67
50682;BME280;36779;52.168;20.878;2023-05-24T05:28:26;100185.27;;;23.93;45.24
50682;BME280;36779;52.168;20.878;2023-05-24T05:30:59;100186.97;;;23.80;44.73
50682;BME280;36779;52.168;20.878;2023-05-24T05:33:30;100188.26;;;23.62;44.38
50682;BME280;36779;52.168;20.878;2023-05-24T05:35:59;100187.45;;;23.66;44.72
50682;BME280;36779;52.168;20.878;2023-05-24T05:38:29;100191.80;;;24.23;45.35
50682;BME280;36779;52.168;20.878;2023-05-24T05:40:58;100194.04;;;24.96;45.30
50682;BME280;36779;52.168;20.878;2023-05-24T05:43:27;100193.05;;;25.69;45.19
50682;BME280;36779;52.168;20.878;2023-05-24T05:46:00;100191.78;;;26.42;44.90
50682;BME280;36779;52.168;20.878;2023-05-24T05:48:29;100189.89;;;26.92;44.38
50682;BME280;36779;52.168;20.878;2023-05-24T05:50:58;100190.83;;;27.36;43.80
50682;BME280;36779;52.168;20.878;2023-05-24T05:53:26;100196.14;;;27.55;43.38
50682;BME280;36779;52.168;20.878;2023-05-24T05:55:57;100195.43;;;27.82;42.90
50682;BME280;36779;52.168;20.878;2023-05-24T05:58:25;100195.56;;;27.91;42.58
50682;BME280;36779;52.168;20.878;2023-05-24T06:01:02;100198.48;;;28.08;42.26
50682;BME280;36779;52.168;20.878;2023-05-24T06:03:32;100204.73;;;28.17;41.61
50682;BME280;36779;52.168;20.878;2023-05-24T06:06:01;100210.02;;;27.75;40.79
50682;BME280;36779;52.168;20.878;2023-05-24T06:08:30;100214.17;;;26.75;40.08
50682;BME280;36779;52.168;20.878;2023-05-24T06:11:02;100218.20;;;25.77;39.92
50682;BME280;36779;52.168;20.878;2023-05-24T06:13:30;100221.66;;;25.08;40.27
50682;BME280;36779;52.168;20.878;2023-05-24T06:16:00;100219.29;;;24.63;40.47
50682;BME280;36779;52.168;20.878;2023-05-24T06:18:29;100219.42;;;24.39;40.71
50682;BME280;36779;52.168;20.878;2023-05-24T06:20:59;100219.16;;;24.20;40.77
50682;BME280;36779;52.168;20.878;2023-05-24T06:23:28;100226.80;;;23.93;40.77
50682;BME280;36779;52.168;20.878;2023-05-24T06:25:57;100229.43;;;23.60;40.89
50682;BME280;36779;52.168;20.878;2023-05-24T06:28:26;100237.14;;;23.40;40.91
50682;BME280;36779;52.168;20.878;2023-05-24T06:30:58;100236.98;;;23.17;41.07
50682;BME280;36779;52.168;20.878;2023-05-24T06:33:28;100242.06;;;23.05;41.13
50682;BME280;36779;52.168;20.878;2023-05-24T06:35:58;100247.98;;;22.98;41.30
50682;BME280;36779;52.168;20.878;2023-05-24T06:38:27;100247.41;;;22.93;41.39
50682;BME280;36779;52.168;20.878;2023-05-24T06:40:56;100251.48;;;22.96;41.63
50682;BME280;36779;52.168;20.878;2023-05-24T06:43:26;100256.73;;;22.89;41.38
50682;BME280;36779;52.168;20.878;2023-05-24T06:46:01;100263.02;;;22.79;41.50
50682;BME280;36779;52.168;20.878;2023-05-24T06:48:30;100261.05;;;22.79;41.47
50682;BME280;36779;52.168;20.878;2023-05-24T06:50:59;100262.73;;;22.78;41.52
50682;BME280;36779;52.168;20.878;2023-05-24T06:53:28;100263.71;;;22.69;41.45
50682;BME280;36779;52.168;20.878;2023-05-24T06:55:58;100265.90;;;22.61;41.37
50682;BME280;36779;52.168;20.878;2023-05-24T06:58:26;100265.27;;;22.58;41.58
50682;BME280;36779;52.168;20.878;2023-05-24T07:00:57;100268.48;;;22.56;41.46
50682;BME280;36779;52.168;20.878;2023-05-24T07:03:28;100269.98;;;22.51;41.58
50682;BME280;36779;52.168;20.878;2023-05-24T07:05:57;100270.89;;;22.42;41.61
50682;BME280;36779;52.168;20.878;2023-05-24T07:08:29;100272.10;;;22.43;41.62
50682;BME280;36779;52.168;20.878;2023-05-24T07:10:57;100272.01;;;22.43;41.65
50682;BME280;36779;52.168;20.878;2023-05-24T07:13:26;100276.94;;;22.46;41.65
50682;BME280;36779;52.168;20.878;2023-05-24T07:16:03;100275.52;;;22.46;41.61
50682;BME280;36779;52.168;20.878;2023-05-24T07:18:31;100275.86;;;22.41;41.66
50682;BME280;36779;52.168;20.878;2023-05-24T07:21:01;100280.55;;;22.40;41.59
50682;BME280;36779;52.168;20.878;2023-05-24T07:23:29;100291.66;;;22.32;41.54
50682;BME280;36779;52.168;20.878;2023-05-24T07:25:59;100297.13;;;22.32;41.72
50682;BME280;36779;52.168;20.878;2023-05-24T07:28:28;100299.27;;;22.36;41.98
50682;BME280;36779;52.168;20.878;2023-05-24T07:31:00;100302.66;;;22.39;41.78
50682;BME280;36779;52.168;20.878;2023-05-24T07:33:32;100304.80;;;22.37;41.72
50682;BME280;36779;52.168;20.878;2023-05-24T07:36:01;100304.42;;;22.35;41.79
50682;BME280;36779;52.168;20.878;2023-05-24T07:38:30;100305.39;;;22.29;41.63
50682;BME280;36779;52.168;20.878;2023-05-24T07:41:00;100306.54;;;22.35;41.80
50682;BME280;36779;52.168;20.878;2023-05-24T07:43:30;100306.38;;;22.49;41.99
50682;BME280;36779;52.168;20.878;2023-05-24T07:46:02;100305.48;;;22.62;42.02
50682;BME280;36779;52.168;20.878;2023-05-24T07:48:30;100311.36;;;22.77;42.05
50682;BME280;36779;52.168;20.878;2023-05-24T07:50:59;100314.63;;;22.87;41.89
50682;BME280;36779;52.168;20.878;2023-05-24T07:53:28;100314.63;;;22.82;41.78
50682;BME280;36779;52.168;20.878;2023-05-24T07:55:57;100320.82;;;22.80;41.79
50682;BME280;36779;52.168;20.878;2023-05-24T07:58:26;100324.14;;;22.85;41.90
50682;BME280;36779;52.168;20.878;2023-05-24T08:01:01;100329.69;;;22.95;41.96
50682;BME280;36779;52.168;20.878;2023-05-24T08:03:30;100332.61;;;23.10;42.13
50682;BME280;36779;52.168;20.878;2023-05-24T08:06:00;100333.14;;;23.22;41.99
50682;BME280;36779;52.168;20.878;2023-05-24T08:08:28;100334.09;;;23.30;42.07
50682;BME280;36779;52.168;20.878;2023-05-24T08:10:57;100334.35;;;23.39;42.01
50682;BME280;36779;52.168;20.878;2023-05-24T08:13:26;100332.27;;;23.45;41.83
50682;BME280;36779;52.168;20.878;2023-05-24T08:16:01;100333.89;;;23.45;41.78
50682;BME280;36779;52.168;20.878;2023-05-24T08:18:29;100338.58;;;23.42;41.84
50682;BME280;36779;52.168;20.878;2023-05-24T08:20:58;100337.80;;;23.49;41.88
50682;BME280;36779;52.168;20.878;2023-05-24T08:23:27;100338.90;;;23.59;41.90
50682;BME280;36779;52.168;20.878;2023-05-24T08:25:57;100340.34;;;23.65;41.85
50682;BME280;36779;52.168;20.878;2023-05-24T08:28:26;100343.90;;;23.69;41.77
50682;BME280;36779;52.168;20.878;2023-05-24T08:31:00;100343.95;;;23.80;41.88
50682;BME280;36779;52.168;20.878;2023-05-24T08:33:29;100347.16;;;23.90;41.89
50682;BME280;36779;52.168;20.878;2023-05-24T08:35:58;100350.94;;;23.97;41.82
50682;BME280;36779;52.168;20.878;2023-05-24T08:38:28;100349.88;;;24.06;41.79
50682;BME280;36779;52.168;20.878;2023-05-24T08:40:57;100348.02;;;24.10;41.76
50682;BME280;36779;52.168;20.878;2023-05-24T08:43:26;100352.13;;;24.12;41.78
50682;BME280;36779;52.168;20.878;2023-05-24T08:46:02;100354.17;;;24.10;41.67
50682;BME280;36779;52.168;20.878;2023-05-24T08:48:34;100354.64;;;23.96;41.37
50682;BME280;36779;52.168;20.878;2023-05-24T08:51:08;100355.57;;;23.85;41.39
50682;BME280;36779;52.168;20.878;2023-05-24T08:53:39;100357.02;;;23.69;41.28
50682;BME280;36779;52.168;20.878;2023-05-24T08:56:09;100359.64;;;23.60;41.46
50682;BME280;36779;52.168;20.878;2023-05-24T08:58:38;100359.54;;;23.51;41.48
50682;BME280;36779;52.168;20.878;2023-05-24T09:01:07;100360.92;;;23.38;41.49
50682;BME280;36779;52.168;20.878;2023-05-24T09:03:37;100365.14;;;23.26;41.52
50682;BME280;36779;52.168;20.878;2023-05-24T09:06:08;100366.05;;;23.17;41.51
50682;BME280;36779;52.168;20.878;2023-05-24T09:08:39;100365.05;;;23.05;41.72
50682;BME280;36779;52.168;20.878;2023-05-24T09:11:14;100367.91;;;22.93;41.70
50682;BME280;36779;52.168;20.878;2023-05-24T09:13:45;100376.98;;;22.79;41.79
50682;BME280;36779;52.168;20.878;2023-05-24T09:16:15;100378.09;;;22.66;41.90
50682;BME280;36779;52.168;20.878;2023-05-24T09:18:44;100381.08;;;22.60;41.88
50682;BME280;36779;52.168;20.878;2023-05-24T09:21:13;100382.20;;;22.54;41.97
50682;BME280;36779;52.168;20.878;2023-05-24T09:23:42;100383.02;;;22.53;42.23
50682;BME280;36779;52.168;20.878;2023-05-24T09:26:12;100384.70;;;22.54;42.27
50682;BME280;36779;52.168;20.878;2023-05-24T09:28:41;100384.40;;;22.52;42.30
50682;BME280;36779;52.168;20.878;2023-05-24T09:31:11;100391.79;;;22.55;42.39
50682;BME280;36779;52.168;20.878;2023-05-24T09:33:41;100392.30;;;22.59;42.49
50682;BME280;36779;52.168;20.878;2023-05-24T09:36:10;100393.35;;;22.62;42.53
50682;BME280;36779;52.168;20.878;2023-05-24T09:38:39;100396.70;;;22.64;42.52
50682;BME280;36779;52.168;20.878;2023-05-24T09:41:09;100401.33;;;22.68;42.55
50682;BME280;36779;52.168;20.878;2023-05-24T09:43:48;100401.45;;;22.71;42.66
50682;BME280;36779;52.168;20.878;2023-05-24T09:46:18;100401.95;;;22.80;42.70
50682;BME280;36779;52.168;20.878;2023-05-24T09:48:56;100406.15;;;22.92;42.64
50682;BME280;36779;52.168;20.878;2023-05-24T09:51:26;100403.76;;;23.02;42.79
50682;BME280;36779;52.168;20.878;2023-05-24T09:53:57;100403.46;;;23.10;42.59
50682;BME280;36779;52.168;20.878;2023-05-24T09:56:29;100404.07;;;23.13;42.60
50682;BME280;36779;52.168;20.878;2023-05-24T09:58:58;100406.02;;;23.13;42.62
50682;BME280;36779;52.168;20.878;2023-05-24T10:01:32;100406.23;;;23.15;42.43
50682;BME280;36779;52.168;20.878;2023-05-24T10:04:03;100402.15;;;23.21;42.60
50682;BME280;36779;52.168;20.878;2023-05-24T10:06:37;100406.41;;;23.29;42.62
50682;BME280;36779;52.168;20.878;2023-05-24T10:09:08;100406.55;;;23.35;42.70
50682;BME280;36779;52.168;20.878;2023-05-24T10:11:38;100410.42;;;23.37;42.54
50682;BME280;36779;52.168;20.878;2023-05-24T10:14:09;100408.91;;;23.39;42.42
50682;BME280;36779;52.168;20.878;2023-05-24T10:16:39;100412.71;;;23.38;42.37
50682;BME280;36779;52.168;20.878;2023-05-24T10:19:07;100409.84;;;23.42;42.53
50682;BME280;36779;52.168;20.878;2023-05-24T10:21:38;100413.20;;;23.52;42.64
50682;BME280;36779;52.168;20.878;2023-05-24T10:24:10;100417.73;;;23.64;42.57
50682;BME280;36779;52.168;20.878;2023-05-24T10:26:40;100414.06;;;23.73;42.64
50682;BME280;36779;52.168;20.878;2023-05-24T10:29:17;100414.80;;;23.82;42.58
50682;BME280;36779;52.168;20.878;2023-05-24T10:31:53;100415.41;;;23.86;42.53
50682;BME280;36779;52.168;20.878;2023-05-24T10:34:23;100411.00;;;23.89;42.45
50682;BME280;36779;52.168;20.878;2023-05-24T10:36:52;100411.59;;;23.97;42.45
50682;BME280;36779;52.168;20.878;2023-05-24T10:39:23;100415.50;;;24.07;42.63
50682;BME280;36779;52.168;20.878;2023-05-24T10:41:55;100415.15;;;24.17;42.53
50682;BME280;36779;52.168;20.878;2023-05-24T10:44:28;100420.34;;;24.22;42.49
50682;BME280;36779;52.168;20.878;2023-05-24T10:47:10;100418.94;;;24.35;42.63
50682;BME280;36779;52.168;20.878;2023-05-24T10:49:47;100418.31;;;24.48;42.59
50682;BME280;36779;52.168;20.878;2023-05-24T10:52:18;100419.41;;;24.66;42.61
50682;BME280;36779;52.168;20.878;2023-05-24T10:55:06;100419.00;;;24.82;42.74
50682;BME280;36779;52.168;20.878;2023-05-24T10:57:35;100419.23;;;25.00;42.68
50682;BME280;36779;52.168;20.878;2023-05-24T11:00:27;100424.49;;;25.22;42.89
50682;BME280;36779;52.168;20.878;2023-05-24T11:03:02;100426.08;;;25.65;42.98
50682;BME280;36779;52.168;20.878;2023-05-24T11:05:34;100431.52;;;25.93;42.84
50682;BME280;36779;52.168;20.878;2023-05-24T11:08:06;100434.41;;;26.12;42.55
50682;BME280;36779;52.168;20.878;2023-05-24T11:10:36;100428.64;;;26.26;42.44
50682;BME280;36779;52.168;20.878;2023-05-24T11:13:07;100431.61;;;26.47;42.35
50682;BME280;36779;52.168;20.878;2023-05-24T11:15:36;100433.59;;;26.74;42.33
50682;BME280;36779;52.168;20.878;2023-05-24T11:18:14;100432.77;;;26.95;42.21
50682;BME280;36779;52.168;20.878;2023-05-24T11:20:44;100431.38;;;27.03;41.96
50682;BME280;36779;52.168;20.878;2023-05-24T11:23:15;100434.02;;;27.09;41.76
50682;BME280;36779;52.168;20.878;2023-05-24T11:25:46;100435.54;;;27.23;41.86
50682;BME280;36779;52.168;20.878;2023-05-24T11:28:15;100433.81;;;27.44;41.80
50682;BME280;36779;52.168;20.878;2023-05-24T11:30:46;100427.91;;;27.69;41.78
50682;BME280;36779;52.168;20.878;2023-05-24T11:33:15;100427.72;;;27.97;41.80
50682;BME280;36779;52.168;20.878;2023-05-24T11:35:47;100427.17;;;28.23;41.66
50682;BME280;36779;52.168;20.878;2023-05-24T11:38:17;100427.14;;;28.38;41.29
50682;BME280;36779;52.168;20.878;2023-05-24T11:40:51;100427.48;;;28.55;41.22
50682;BME280;36779;52.168;20.878;2023-05-24T11:43:22;100424.77;;;28.82;41.19
50682;BME280;36779;52.168;20.878;2023-05-24T11:45:51;100423.28;;;29.05;41.06
50682;BME280;36779;52.168;20.878;2023-05-24T11:48:23;100422.65;;;29.26;40.87
50682;BME280;36779;52.168;20.878;2023-05-24T11:50:52;100419.73;;;29.27;40.51
50682;BME280;36779;52.168;20.878;2023-05-24T11:53:23;100419.63;;;29.35;40.47
50682;BME280;36779;52.168;20.878;2023-05-24T11:55:53;100415.13;;;29.33;40.14
50682;BME280;36779;52.168;20.878;2023-05-24T11:58:29;100415.53;;;29.32;40.19
50682;BME280;36779;52.168;20.878;2023-05-24T12:01:02;100414.63;;;29.34;39.93
50682;BME280;36779;52.168;20.878;2023-05-24T12:03:31;100412.20;;;29.38;39.91
50682;BME280;36779;52.168;20.878;2023-05-24T12:06:01;100414.20;;;29.34;39.75
50682;BME280;36779;52.168;20.878;2023-05-24T12:08:29;100416.74;;;29.39;39.63
50682;BME280;36779;52.168;20.878;2023-05-24T12:10:59;100415.98;;;29.44;39.78
50682;BME280;36779;52.168;20.878;2023-05-24T12:13:29;100415.98;;;29.57;39.55
50682;BME280;36779;52.168;20.878;2023-05-24T12:15:59;100416.06;;;29.63;39.52
50682;BME280;36779;52.168;20.878;2023-05-24T12:18:30;100411.33;;;29.76;39.51
50682;BME280;36779;52.168;20.878;2023-05-24T12:20:59;100410.23;;;29.83;39.30
50682;BME280;36779;52.168;20.878;2023-05-24T12:23:27;100412.64;;;29.84;39.20
50682;BME280;36779;52.168;20.878;2023-05-24T12:25:59;100413.83;;;29.68;38.71
50682;BME280;36779;52.168;20.878;2023-05-24T12:28:32;100414.88;;;29.38;38.48
50682;BME280;36779;52.168;20.878;2023-05-24T12:31:04;100412.15;;;29.29;38.70
50682;BME280;36779;52.168;20.878;2023-05-24T12:33:34;100411.64;;;29.44;38.92
50682;BME280;36779;52.168;20.878;2023-05-24T12:36:03;100409.10;;;29.53;38.65
50682;BME280;36779;52.168;20.878;2023-05-24T12:38:32;100409.54;;;29.32;38.33
50682;BME280;36779;52.168;20.878;2023-05-24T12:41:01;100407.09;;;29.22;38.66
50682;BME280;36779;52.168;20.878;2023-05-24T12:43:32;100406.39;;;29.26;38.78
50682;BME280;36779;52.168;20.878;2023-05-24T12:46:01;100405.12;;;29.29;38.65
50682;BME280;36779;52.168;20.878;2023-05-24T12:48:30;100405.98;;;29.06;38.31
50682;BME280;36779;52.168;20.878;2023-05-24T12:50:59;100411.77;;;28.91;38.64
50682;BME280;36779;52.168;20.878;2023-05-24T12:53:27;100411.79;;;28.77;38.65
50682;BME280;36779;52.168;20.878;2023-05-24T12:55:56;100411.48;;;28.60;38.55
50682;BME280;36779;52.168;20.878;2023-05-24T12:58:27;100416.92;;;28.25;38.44
50682;BME280;36779;52.168;20.878;2023-05-24T13:00:59;100414.08;;;28.00;38.62